Time;durP1;ratioP1;P1;durP2;ratioP2;P2;SDS_P1;SDS_P2;PMS_P1;PMS_P2;Temp;Humidity;BMP_temperature;BMP_pressure;BME280_temperature;BME280_humidity;BME280_pressure;Samples;Min_cycle;Max_cycle;Signal;HPM_P1;HPM_P2
2022/11/13 00:02:20;;;;;;;13.50;8.43;;;8.40;99.90;;;;;;5029349;28;20462;-71
2022/11/13 00:05:05;;;;;;;14.07;8.80;;;8.50;99.90;;;;;;5034943;28;21104;-71
2022/11/13 00:07:49;;;;;;;13.10;8.13;;;8.40;99.90;;;;;;5036097;28;20461;-71
2022/11/13 00:10:33;;;;;;;14.70;9.43;;;8.50;99.90;;;;;;5035207;28;20505;-71
2022/11/13 00:13:17;;;;;;;13.27;8.57;;;8.50;99.90;;;;;;5026253;28;20482;-71
2022/11/13 00:16:04;;;;;;;13.57;8.73;;;8.50;99.90;;;;;;5040668;28;20540;-71
2022/11/13 00:18:48;;;;;;;19.20;9.80;;;8.50;99.90;;;;;;5024442;28;20512;-71
2022/11/13 00:21:32;;;;;;;16.07;8.93;;;8.50;99.90;;;;;;5043804;28;20511;-71
2022/11/13 00:24:17;;;;;;;14.77;8.90;;;8.50;99.90;;;;;;5034791;28;20511;-71
2022/11/13 00:27:01;;;;;;;15.13;8.60;;;8.40;99.90;;;;;;5032840;28;20458;-72
2022/11/13 00:29:45;;;;;;;11.40;8.77;;;8.40;99.90;;;;;;5036050;28;20477;-72
2022/11/13 00:32:29;;;;;;;12.90;8.20;;;8.40;99.90;;;;;;5035713;28;21027;-71
2022/11/13 00:35:13;;;;;;;17.70;9.03;;;8.40;99.90;;;;;;5036718;28;20520;-71
2022/11/13 00:37:58;;;;;;;15.43;9.17;;;8.40;99.90;;;;;;5029295;28;20529;-71
2022/11/13 00:40:42;;;;;;;14.80;9.37;;;8.40;99.90;;;;;;5037895;28;20489;-72
2022/11/13 00:43:26;;;;;;;13.27;9.07;;;8.40;99.90;;;;;;5033090;28;20462;-71
2022/11/13 00:46:11;;;;;;;15.17;8.70;;;8.40;99.90;;;;;;5025807;28;20493;-72
2022/11/13 00:48:55;;;;;;;11.50;8.00;;;8.40;99.90;;;;;;5025645;28;20466;-72
2022/11/13 00:51:39;;;;;;;13.20;8.27;;;8.40;99.90;;;;;;5028234;28;20489;-72
2022/11/13 00:54:23;;;;;;;13.90;8.80;;;8.40;99.90;;;;;;5030686;28;20508;-72
2022/11/13 00:57:07;;;;;;;12.57;8.97;;;8.40;99.90;;;;;;5026388;28;21030;-71
2022/11/13 00:59:51;;;;;;;13.20;9.83;;;8.40;99.90;;;;;;5025445;28;20509;-73
2022/11/13 01:02:35;;;;;;;13.67;7.50;;;8.40;99.90;;;;;;5024691;28;20474;-72
2022/11/13 01:05:19;;;;;;;18.70;9.60;;;8.40;99.90;;;;;;5025462;28;20458;-72
2022/11/13 01:08:04;;;;;;;13.10;8.50;;;8.40;99.90;;;;;;5024986;28;20513;-72
2022/11/13 01:10:48;;;;;;;11.97;7.97;;;8.40;99.90;;;;;;5030048;28;20504;-72
2022/11/13 01:13:33;;;;;;;16.57;8.23;;;8.40;99.90;;;;;;5027460;28;20995;-72
2022/11/13 01:16:20;;;;;;;13.33;7.80;;;8.30;99.90;;;;;;5041882;28;20827;-72
2022/11/13 01:19:04;;;;;;;12.27;8.30;;;8.30;99.90;;;;;;5017169;28;20459;-72
2022/11/13 01:21:48;;;;;;;11.30;7.90;;;8.30;99.90;;;;;;5014557;28;20539;-72
2022/11/13 01:24:33;;;;;;;13.33;8.50;;;8.30;99.90;;;;;;5026608;28;20965;-70
2022/11/13 01:27:17;;;;;;;14.60;9.23;;;8.30;99.90;;;;;;5046245;28;20453;-72
2022/11/13 01:30:01;;;;;;;12.77;9.10;;;8.30;99.90;;;;;;5029949;28;20513;-72
2022/11/13 01:32:45;;;;;;;16.70;9.10;;;8.30;99.90;;;;;;5011029;28;21015;-71
2022/11/13 01:35:29;;;;;;;11.80;8.00;;;8.30;99.90;;;;;;5027729;28;20469;-71
2022/11/13 01:38:13;;;;;;;14.50;7.90;;;8.30;99.90;;;;;;5037956;28;20516;-71
2022/11/13 01:40:57;;;;;;;13.93;8.93;;;8.20;99.90;;;;;;5023388;28;21055;-71
2022/11/13 01:43:41;;;;;;;12.70;8.50;;;8.30;99.90;;;;;;5031164;28;20537;-71
2022/11/13 01:46:30;;;;;;;13.30;8.03;;;8.30;99.90;;;;;;5030684;28;20469;-72
2022/11/13 01:49:28;;;;;;;16.90;8.80;;;8.30;99.90;;;;;;5017854;28;21036;-71
2022/11/13 01:52:18;;;;;;;14.60;8.43;;;8.30;99.90;;;;;;5026706;28;20481;-71
2022/11/13 01:55:15;;;;;;;19.10;9.23;;;8.30;99.90;;;;;;5030948;28;20517;-71
2022/11/13 01:58:00;;;;;;;15.13;8.27;;;8.20;99.90;;;;;;5034256;28;20501;-71
2022/11/13 02:00:44;;;;;;;12.87;8.23;;;8.20;99.90;;;;;;5030911;28;20509;-71
2022/11/13 02:03:28;;;;;;;14.00;7.97;;;8.20;99.90;;;;;;5031577;28;20501;-71
2022/11/13 02:06:13;;;;;;;11.53;8.43;;;8.20;99.90;;;;;;5029101;28;20566;-71
2022/11/13 02:08:57;;;;;;;13.40;8.13;;;8.20;99.90;;;;;;5052223;28;20470;-71
2022/11/13 02:11:42;;;;;;;10.87;7.80;;;8.20;99.90;;;;;;5034563;28;21055;-72
2022/11/13 02:14:28;;;;;;;12.03;8.10;;;8.20;99.90;;;;;;5041023;28;20530;-72
2022/11/13 02:17:23;;;;;;;16.80;9.40;;;8.20;99.90;;;;;;5029917;28;20522;-71
2022/11/13 02:20:08;;;;;;;12.23;8.30;;;8.20;99.90;;;;;;5029577;28;20543;-71
2022/11/13 02:23:23;;;;;;;16.53;8.93;;;8.20;99.90;;;;;;5029628;28;20458;-72
2022/11/13 02:26:09;;;;;;;11.77;7.83;;;8.20;99.90;;;;;;5033783;28;20466;-71
2022/11/13 02:28:53;;;;;;;13.17;7.93;;;8.20;99.90;;;;;;5032169;28;20473;-72
2022/11/13 02:31:37;;;;;;;16.10;8.40;;;8.20;99.90;;;;;;5037441;28;20498;-71
2022/11/13 02:34:21;;;;;;;14.00;7.93;;;8.20;99.90;;;;;;5029214;28;20462;-72
2022/11/13 02:37:06;;;;;;;13.10;8.57;;;8.20;99.90;;;;;;5035937;28;20462;-71
2022/11/13 02:39:50;;;;;;;11.80;8.10;;;8.20;99.90;;;;;;5047549;28;20553;-71
2022/11/13 02:42:35;;;;;;;15.93;8.70;;;8.20;99.90;;;;;;5026491;28;20497;-72
2022/11/13 02:45:19;;;;;;;11.77;8.50;;;8.20;99.90;;;;;;5018431;28;20467;-71
2022/11/13 02:48:05;;;;;;;12.30;8.53;;;8.20;99.90;;;;;;5028960;28;20808;-71
2022/11/13 02:50:49;;;;;;;13.53;8.23;;;8.20;99.90;;;;;;5012192;28;20467;-72
2022/11/13 02:53:33;;;;;;;12.50;8.70;;;8.20;99.90;;;;;;5010245;28;20483;-72
2022/11/13 02:56:17;;;;;;;13.20;8.20;;;8.20;99.90;;;;;;5030350;28;20466;-72
2022/11/13 02:59:02;;;;;;;15.47;8.47;;;8.20;99.90;;;;;;5030049;28;20482;-71
2022/11/13 03:01:46;;;;;;;14.50;8.47;;;8.20;99.90;;;;;;5028282;28;20493;-71
2022/11/13 03:04:31;;;;;;;11.50;7.87;;;8.10;99.90;;;;;;5042762;28;20482;-72
2022/11/13 03:07:15;;;;;;;10.87;7.17;;;8.10;99.90;;;;;;5022658;28;20517;-71
2022/11/13 03:09:59;;;;;;;13.63;8.63;;;8.10;99.90;;;;;;5032028;28;20470;-70
2022/11/13 03:12:43;;;;;;;12.50;7.60;;;8.10;99.90;;;;;;5038657;28;20470;-71
2022/11/13 03:15:28;;;;;;;10.90;7.90;;;8.20;99.90;;;;;;5037485;28;20508;-72
2022/11/13 03:18:12;;;;;;;11.70;7.63;;;8.10;99.90;;;;;;5026801;28;20513;-71
2022/11/13 03:20:56;;;;;;;9.73;7.10;;;8.10;99.90;;;;;;5039747;28;20883;-72
2022/11/13 03:23:43;;;;;;;14.87;8.00;;;8.10;99.90;;;;;;5035628;28;20828;-71
2022/11/13 03:26:28;;;;;;;10.47;7.20;;;8.00;99.90;;;;;;5027505;28;20488;-72
2022/11/13 03:29:12;;;;;;;13.43;7.40;;;8.00;99.90;;;;;;5036585;28;20474;-72
2022/11/13 03:31:57;;;;;;;11.70;8.03;;;8.00;99.90;;;;;;5032933;28;20517;-71
2022/11/13 03:34:41;;;;;;;12.33;7.83;;;8.00;99.90;;;;;;5028639;28;20864;-71
2022/11/13 03:37:25;;;;;;;9.23;6.97;;;8.00;99.90;;;;;;5027951;28;20466;-72
2022/11/13 03:40:10;;;;;;;11.70;7.60;;;8.00;99.90;;;;;;5041615;28;20497;-71
2022/11/13 03:42:54;;;;;;;10.13;6.60;;;8.00;99.90;;;;;;5034952;28;20466;-72
2022/11/13 03:45:38;;;;;;;12.37;7.93;;;8.00;99.90;;;;;;5030854;28;20455;-71
2022/11/13 03:48:22;;;;;;;10.27;6.60;;;7.90;99.90;;;;;;5052430;28;20468;-71
2022/11/13 03:51:07;;;;;;;8.30;5.67;;;8.00;99.90;;;;;;5038060;28;21042;-71
2022/11/13 03:53:51;;;;;;;8.00;6.27;;;7.90;99.90;;;;;;5039846;28;20608;-71
2022/11/13 03:56:35;;;;;;;10.30;6.67;;;7.90;99.90;;;;;;5046819;28;20470;-72
2022/11/13 03:59:19;;;;;;;10.63;7.03;;;7.90;99.90;;;;;;5037443;28;20511;-71
2022/11/13 04:02:03;;;;;;;8.73;5.23;;;7.90;99.90;;;;;;5032633;28;20543;-71
2022/11/13 04:04:47;;;;;;;9.20;6.00;;;7.80;99.90;;;;;;5029604;28;20784;-72
2022/11/13 04:07:32;;;;;;;8.30;6.20;;;7.80;99.90;;;;;;5032520;28;20554;-71
2022/11/13 04:10:17;;;;;;;8.87;6.60;;;7.80;99.90;;;;;;5033198;28;20470;-71
2022/11/13 04:13:01;;;;;;;8.47;5.33;;;7.80;99.90;;;;;;5032896;28;20494;-71
2022/11/13 04:15:46;;;;;;;8.37;5.70;;;7.70;99.90;;;;;;5046670;28;20529;-72
2022/11/13 04:18:31;;;;;;;9.07;6.47;;;7.70;99.90;;;;;;5054741;28;20986;-72
2022/11/13 04:21:15;;;;;;;7.47;6.00;;;7.80;99.90;;;;;;5036243;28;20482;-72
2022/11/13 04:24:00;;;;;;;9.60;5.97;;;7.80;99.90;;;;;;5038191;28;20462;-72
2022/11/13 04:26:44;;;;;;;9.30;6.50;;;7.80;99.90;;;;;;5029693;28;20454;-72
2022/11/13 04:29:28;;;;;;;8.50;6.97;;;7.80;99.90;;;;;;5046511;28;20517;-72
2022/11/13 04:32:12;;;;;;;9.93;7.30;;;7.80;99.90;;;;;;5046972;28;20501;-72
2022/11/13 04:34:57;;;;;;;8.53;6.20;;;7.80;99.90;;;;;;5034012;28;20450;-72
2022/11/13 04:37:41;;;;;;;6.73;5.30;;;7.70;99.90;;;;;;5030927;28;20458;-72
2022/11/13 04:40:25;;;;;;;7.97;4.90;;;7.70;99.90;;;;;;5038613;28;20859;-72
2022/11/13 04:43:10;;;;;;;9.27;5.63;;;7.80;99.90;;;;;;5045772;28;20539;-71
2022/11/13 04:45:54;;;;;;;8.37;5.40;;;7.80;99.90;;;;;;5032843;28;20504;-71
2022/11/13 04:48:38;;;;;;;7.17;5.60;;;7.80;99.90;;;;;;5040133;28;20446;-72
2022/11/13 04:51:22;;;;;;;6.87;4.83;;;7.80;99.90;;;;;;5040585;28;20979;-71
2022/11/13 04:54:06;;;;;;;8.40;5.03;;;7.80;99.90;;;;;;5036320;28;20545;-71
2022/11/13 04:56:51;;;;;;;5.80;4.90;;;7.60;99.90;;;;;;5031320;28;20450;-71
2022/11/13 04:59:35;;;;;;;9.27;5.57;;;7.50;99.90;;;;;;5034792;28;20489;-71
2022/11/13 05:02:19;;;;;;;6.33;5.03;;;7.60;99.90;;;;;;5031695;28;20462;-71
2022/11/13 05:05:04;;;;;;;7.30;4.80;;;7.40;99.90;;;;;;5029450;28;20519;-71
2022/11/13 05:07:48;;;;;;;8.63;5.60;;;7.40;99.90;;;;;;5027466;28;20462;-71
2022/11/13 05:10:32;;;;;;;8.67;5.60;;;7.40;99.90;;;;;;5033054;28;20455;-70
2022/11/13 05:13:16;;;;;;;6.43;4.93;;;7.50;99.90;;;;;;5030999;28;20498;-71
2022/11/13 05:16:05;;;;;;;8.23;5.37;;;7.60;99.90;;;;;;5041997;28;20530;-71
2022/11/13 05:18:49;;;;;;;7.77;5.90;;;7.60;99.90;;;;;;5033572;28;20486;-72
2022/11/13 05:21:35;;;;;;;7.50;5.40;;;7.60;99.90;;;;;;5040641;28;20470;-71
2022/11/13 05:24:19;;;;;;;8.40;4.90;;;7.60;99.90;;;;;;5037692;28;20533;-71
2022/11/13 05:27:04;;;;;;;7.93;5.30;;;7.60;99.90;;;;;;5033643;28;20488;-71
2022/11/13 05:29:48;;;;;;;6.87;5.00;;;7.60;99.90;;;;;;5040887;28;20483;-71
2022/11/13 05:32:32;;;;;;;8.03;5.60;;;7.60;99.90;;;;;;5038760;28;20547;-71
2022/11/13 05:35:17;;;;;;;8.43;6.37;;;7.60;99.90;;;;;;5038357;28;20522;-71
2022/11/13 05:38:01;;;;;;;7.20;5.07;;;7.60;99.90;;;;;;5036044;28;20466;-71
2022/11/13 05:40:46;;;;;;;5.27;4.63;;;7.50;99.90;;;;;;5032143;28;20513;-72
2022/11/13 05:43:30;;;;;;;6.60;4.87;;;7.40;99.90;;;;;;5037840;28;20455;-71
2022/11/13 05:46:20;;;;;;;7.17;5.37;;;7.40;99.90;;;;;;5048037;28;20457;-70
2022/11/13 05:49:04;;;;;;;5.90;4.90;;;7.40;99.90;;;;;;5039713;28;20451;-71
2022/11/13 05:51:48;;;;;;;6.37;4.47;;;7.40;99.90;;;;;;5034587;28;20453;-71
2022/11/13 05:54:32;;;;;;;6.50;4.47;;;7.40;99.90;;;;;;5031950;28;20481;-71
2022/11/13 05:57:16;;;;;;;8.50;5.50;;;7.40;99.90;;;;;;5034056;28;20512;-71
2022/11/13 06:00:01;;;;;;;7.27;5.20;;;7.40;99.90;;;;;;5034556;28;20666;-71
2022/11/13 06:02:45;;;;;;;6.90;4.93;;;7.40;99.90;;;;;;5028236;28;21007;-72
2022/11/13 06:05:33;;;;;;;6.40;4.10;;;7.40;99.90;;;;;;5035621;28;20461;-72
2022/11/13 06:08:17;;;;;;;6.50;4.83;;;7.30;99.90;;;;;;5023445;28;20489;-71
2022/11/13 06:11:05;;;;;;;6.10;5.27;;;7.30;99.90;;;;;;5026418;28;20486;-70
2022/11/13 06:13:50;;;;;;;7.07;5.10;;;7.30;99.90;;;;;;5033362;28;20546;-71
2022/11/13 06:16:36;;;;;;;7.90;5.00;;;7.20;99.90;;;;;;5029877;28;20455;-71
2022/11/13 06:19:20;;;;;;;7.33;5.53;;;7.20;99.90;;;;;;5009529;28;20487;-72
2022/11/13 06:22:05;;;;;;;9.33;5.63;;;7.20;99.90;;;;;;5019802;28;20458;-71
2022/11/13 06:24:49;;;;;;;6.90;5.30;;;7.20;99.90;;;;;;5033951;28;20450;-72
2022/11/13 06:27:34;;;;;;;8.70;5.60;;;7.20;99.90;;;;;;5040622;28;20450;-71
2022/11/13 06:30:18;;;;;;;7.50;5.60;;;7.20;99.90;;;;;;5030282;28;20517;-71
2022/11/13 06:33:02;;;;;;;8.53;5.63;;;7.20;99.90;;;;;;5049821;28;20520;-71
2022/11/13 06:35:46;;;;;;;6.23;5.07;;;7.20;99.90;;;;;;5031159;28;20450;-72
2022/11/13 06:38:32;;;;;;;8.67;4.90;;;7.20;99.90;;;;;;5029316;28;20458;-72
2022/11/13 06:41:21;;;;;;;6.90;5.27;;;7.20;99.90;;;;;;5024418;28;20521;-72
2022/11/13 06:44:05;;;;;;;7.50;4.90;;;7.10;99.90;;;;;;5038901;28;20507;-70
2022/11/13 06:46:50;;;;;;;6.73;5.50;;;7.10;99.90;;;;;;5029287;28;20445;-72
2022/11/13 06:49:34;;;;;;;8.13;5.37;;;7.10;99.90;;;;;;5030631;28;20494;-71
2022/11/13 06:52:18;;;;;;;8.00;5.60;;;7.10;99.90;;;;;;5032534;28;20510;-71
2022/11/13 06:55:03;;;;;;;9.43;5.30;;;7.10;99.90;;;;;;5029378;28;20458;-71
2022/11/13 06:57:47;;;;;;;15.33;5.53;;;7.00;99.90;;;;;;5025641;28;21016;-71
2022/11/13 07:00:31;;;;;;;6.17;4.73;;;7.00;99.90;;;;;;5049493;28;20560;-71
2022/11/13 07:03:18;;;;;;;6.77;5.00;;;6.90;99.90;;;;;;5032310;28;20458;-72
2022/11/13 07:06:07;;;;;;;6.90;4.97;;;6.80;99.90;;;;;;5027985;28;20473;-71
2022/11/13 07:08:52;;;;;;;6.80;4.50;;;6.90;99.90;;;;;;5027863;28;20475;-72
2022/11/13 07:11:36;;;;;;;7.50;5.20;;;6.80;99.90;;;;;;5032740;28;20455;-72
2022/11/13 07:14:20;;;;;;;7.50;5.37;;;6.80;99.90;;;;;;5042329;28;20481;-72
2022/11/13 07:17:04;;;;;;;7.40;4.83;;;6.90;99.90;;;;;;5028778;28;20805;-72
2022/11/13 07:19:48;;;;;;;8.50;5.77;;;6.90;99.90;;;;;;5028601;28;21046;-72
2022/11/13 07:22:33;;;;;;;5.80;4.60;;;6.90;99.90;;;;;;5031577;28;20505;-72
2022/11/13 07:25:17;;;;;;;6.00;4.93;;;6.90;99.90;;;;;;5026716;28;20543;-72
2022/11/13 07:28:01;;;;;;;8.27;5.70;;;6.80;99.90;;;;;;5033050;28;20450;-72
2022/11/13 07:30:45;;;;;;;8.27;5.87;;;6.80;99.90;;;;;;5034790;28;20470;-72
2022/11/13 07:33:30;;;;;;;9.37;5.80;;;6.80;99.90;;;;;;5029161;28;20521;-72
2022/11/13 07:36:14;;;;;;;11.27;5.93;;;6.80;99.90;;;;;;5016470;28;20458;-72
2022/11/13 07:38:58;;;;;;;6.43;4.97;;;6.80;99.90;;;;;;5011674;28;20467;-72
2022/11/13 07:41:42;;;;;;;8.30;6.30;;;6.80;99.90;;;;;;5030794;28;20996;-72
2022/11/13 07:44:27;;;;;;;8.90;6.60;;;6.90;99.90;;;;;;5030901;28;20474;-72
2022/11/13 07:47:10;;;;;;;9.17;6.30;;;6.90;99.90;;;;;;5026459;28;20494;-72
2022/11/13 07:49:55;;;;;;;7.53;5.63;;;6.80;99.90;;;;;;5043796;28;20459;-71
2022/11/13 07:52:39;;;;;;;7.70;6.50;;;6.90;99.90;;;;;;5028484;28;20475;-71
2022/11/13 07:55:24;;;;;;;10.30;7.30;;;6.90;99.90;;;;;;5037865;28;20481;-72
2022/11/13 07:58:09;;;;;;;11.03;7.00;;;6.90;99.90;;;;;;5028645;28;20465;-72
2022/11/13 08:00:53;;;;;;;10.67;6.47;;;6.80;99.90;;;;;;5027784;28;20577;-73
2022/11/13 08:03:37;;;;;;;13.40;7.50;;;6.80;99.90;;;;;;5036414;28;20540;-72
2022/11/13 08:06:22;;;;;;;9.97;7.53;;;6.80;99.90;;;;;;5025051;28;20843;-73
2022/11/13 08:09:06;;;;;;;9.80;6.93;;;6.80;99.90;;;;;;5027839;28;20470;-71
2022/11/13 08:11:51;;;;;;;11.50;7.23;;;6.80;99.90;;;;;;5037873;28;20834;-72
2022/11/13 08:14:35;;;;;;;11.20;7.27;;;6.80;99.90;;;;;;5024240;28;20558;-72
2022/11/13 08:17:19;;;;;;;8.47;5.53;;;6.80;99.90;;;;;;5028543;28;20453;-71
2022/11/13 08:20:05;;;;;;;12.60;7.90;;;6.80;99.90;;;;;;5024894;28;20562;-72
2022/11/13 08:22:49;;;;;;;14.50;10.00;;;6.80;99.90;;;;;;5032987;28;20521;-72
2022/11/13 08:25:35;;;;;;;12.77;8.00;;;6.80;99.90;;;;;;5031413;28;20589;-71
2022/11/13 08:28:19;;;;;;;28.23;12.30;;;6.80;99.90;;;;;;5040821;28;20849;-71
2022/11/13 08:31:11;;;;;;;15.37;9.50;;;6.80;99.90;;;;;;5025196;28;20550;-71
2022/11/13 08:33:56;;;;;;;12.90;8.60;;;6.80;99.90;;;;;;5029310;28;20477;-72
2022/11/13 08:36:40;;;;;;;16.53;10.60;;;6.80;99.90;;;;;;5027720;28;20471;-71
2022/11/13 08:39:24;;;;;;;13.17;7.67;;;6.80;99.90;;;;;;5022454;28;20465;-71
2022/11/13 08:42:08;;;;;;;12.77;8.47;;;6.80;99.90;;;;;;5044506;28;20462;-71
2022/11/13 08:44:52;;;;;;;11.90;7.80;;;6.90;99.90;;;;;;5030283;28;20484;-71
2022/11/13 08:47:37;;;;;;;11.07;6.80;;;6.90;99.90;;;;;;5043748;28;20470;-71
2022/11/13 08:50:21;;;;;;;9.20;6.37;;;6.90;99.90;;;;;;5031536;28;20555;-72
2022/11/13 08:53:05;;;;;;;9.13;5.93;;;7.00;99.90;;;;;;5019021;28;20597;-71
2022/11/13 08:55:50;;;;;;;7.63;6.20;;;7.00;99.90;;;;;;5024689;28;20470;-71
2022/11/13 08:58:34;;;;;;;8.43;6.03;;;7.00;99.90;;;;;;5027963;28;20466;-72
2022/11/13 09:01:21;;;;;;;10.30;5.60;;;7.00;99.90;;;;;;5024384;28;20473;-71
2022/11/13 09:04:06;;;;;;;11.60;6.80;;;7.10;99.90;;;;;;5023263;28;20545;-71
2022/11/13 09:06:51;;;;;;;15.90;7.27;;;7.10;99.90;;;;;;5027081;28;20478;-71
2022/11/13 09:09:36;;;;;;;11.90;7.00;;;7.20;99.90;;;;;;5029662;28;20528;-71
2022/11/13 09:12:20;;;;;;;13.80;7.53;;;7.20;99.90;;;;;;5027216;28;21081;-71
2022/11/13 09:15:05;;;;;;;12.90;8.17;;;7.30;99.90;;;;;;5039200;28;20485;-71
2022/11/13 09:17:49;;;;;;;10.27;6.63;;;7.40;99.90;;;;;;5033659;28;20473;-70
2022/11/13 09:20:33;;;;;;;11.20;6.87;;;7.50;99.90;;;;;;5027844;28;20459;-71
2022/11/13 09:23:18;;;;;;;9.77;7.80;;;7.50;99.90;;;;;;5024944;28;20459;-71
2022/11/13 09:26:02;;;;;;;9.80;7.63;;;7.60;99.90;;;;;;5036655;28;20505;-71
2022/11/13 09:28:47;;;;;;;12.20;7.57;;;7.70;99.90;;;;;;5030471;28;21034;-72
2022/11/13 09:31:31;;;;;;;12.20;7.07;;;7.80;99.90;;;;;;5042030;28;20496;-71
2022/11/13 09:34:15;;;;;;;10.67;6.70;;;7.90;99.90;;;;;;5031395;28;20462;-72
2022/11/13 09:36:59;;;;;;;11.10;7.50;;;8.00;99.90;;;;;;5035309;28;20589;-71
2022/11/13 09:39:44;;;;;;;9.63;6.60;;;8.20;99.90;;;;;;5039369;28;20449;-72
2022/11/13 09:42:29;;;;;;;9.30;7.07;;;8.30;99.90;;;;;;5021072;28;20482;-71
2022/11/13 09:45:14;;;;;;;17.83;9.87;;;8.50;99.90;;;;;;5030277;28;20513;-72
2022/11/13 09:48:11;;;;;;;15.63;10.33;;;8.50;99.90;;;;;;5030166;28;20458;-72
2022/11/13 09:50:58;;;;;;;13.70;8.93;;;8.60;99.90;;;;;;5032392;28;20609;-72
2022/11/13 09:53:42;;;;;;;12.07;8.60;;;8.70;99.90;;;;;;5044864;28;20582;-72
2022/11/13 09:56:38;;;;;;;16.83;9.67;;;8.70;99.90;;;;;;5030673;28;20446;-72
2022/11/13 09:59:31;;;;;;;14.80;9.70;;;8.80;99.90;;;;;;5025868;28;20513;-72
2022/11/13 10:02:34;;;;;;;12.10;9.00;;;8.80;99.90;;;;;;5027256;28;20454;-71
2022/11/13 10:05:49;;;;;;;12.83;8.80;;;8.80;99.90;;;;;;5029891;28;20508;-71
2022/11/13 10:08:55;;;;;;;10.50;7.30;;;8.90;99.90;;;;;;5037831;28;20482;-72
2022/11/13 10:12:01;;;;;;;8.20;6.30;;;9.10;99.90;;;;;;5031551;28;20529;-70
2022/11/13 10:14:50;;;;;;;9.07;6.97;;;9.10;99.90;;;;;;5030129;28;20477;-72
2022/11/13 10:17:41;;;;;;;9.03;6.67;;;9.20;99.90;;;;;;5021798;28;20451;-72
2022/11/13 10:20:53;;;;;;;7.63;6.90;;;9.40;99.90;;;;;;5030427;28;20529;-72
2022/11/13 10:23:37;;;;;;;9.67;7.60;;;9.50;99.90;;;;;;5035491;28;20453;-72
2022/11/13 10:26:25;;;;;;;9.00;7.50;;;9.60;99.90;;;;;;5024130;28;20505;-72
2022/11/13 10:29:18;;;;;;;11.27;7.50;;;9.60;99.90;;;;;;5030568;28;20447;-72
2022/11/13 10:32:22;;;;;;;12.27;5.93;;;9.60;99.90;;;;;;5042549;28;20479;-72
2022/11/13 10:35:06;;;;;;;7.37;6.30;;;9.70;99.90;;;;;;5040222;28;20451;-72
2022/11/13 10:38:18;;;;;;;10.07;6.50;;;9.90;99.90;;;;;;5034103;28;20818;-72
2022/11/13 10:41:22;;;;;;;7.03;6.03;;;9.90;99.90;;;;;;5045855;28;20571;-70
2022/11/13 10:44:16;;;;;;;7.00;5.80;;;10.00;99.90;;;;;;5024898;28;20459;-71
2022/11/13 10:47:14;;;;;;;10.90;6.80;;;10.00;99.90;;;;;;5030993;28;20500;-71
2022/11/13 10:50:10;;;;;;;8.90;5.20;;;10.00;99.90;;;;;;5054805;28;20462;-72
2022/11/13 10:52:56;;;;;;;8.50;6.17;;;10.00;99.90;;;;;;5041835;28;20485;-72
2022/11/13 10:55:40;;;;;;;10.20;6.40;;;10.10;99.90;;;;;;5025987;28;20466;-70
2022/11/13 10:58:25;;;;;;;8.10;5.80;;;10.20;99.90;;;;;;5028455;28;20541;-72
2022/11/13 11:01:22;;;;;;;7.30;6.30;;;10.20;99.90;;;;;;5028255;28;20461;-72
2022/11/13 11:04:12;;;;;;;8.33;6.90;;;10.30;99.90;;;;;;5031700;28;20447;-71
2022/11/13 11:07:11;;;;;;;11.13;6.60;;;10.30;99.90;;;;;;5033266;28;20491;-71
2022/11/13 11:09:55;;;;;;;11.13;6.47;;;10.30;99.90;;;;;;5031006;28;20492;-71
2022/11/13 11:12:40;;;;;;;8.63;6.50;;;10.30;99.90;;;;;;5033107;28;21118;-70
2022/11/13 11:15:27;;;;;;;8.13;6.70;;;10.30;99.90;;;;;;5030319;28;20497;-72
2022/11/13 11:18:27;;;;;;;10.20;6.30;;;10.30;99.90;;;;;;5026721;28;20462;-70
2022/11/13 11:21:22;;;;;;;9.53;5.83;;;10.40;99.90;;;;;;5023841;28;20459;-71
2022/11/13 11:24:13;;;;;;;7.13;5.20;;;10.50;99.90;;;;;;5023965;28;20811;-71
2022/11/13 11:27:08;;;;;;;6.30;5.40;;;10.60;99.90;;;;;;5040938;28;20809;-71
2022/11/13 11:30:03;;;;;;;9.53;6.73;;;10.60;99.90;;;;;;5023558;28;20458;-71
2022/11/13 11:32:59;;;;;;;5.53;5.00;;;10.60;99.90;;;;;;5028711;28;20501;-71
2022/11/13 11:36:25;;;;;;;5.40;4.90;;;10.70;99.90;;;;;;5043654;28;20536;-72
2022/11/13 11:39:49;;;;;;;8.83;5.70;;;10.90;99.90;;;;;;5030679;28;20877;-72
2022/11/13 11:42:43;;;;;;;6.93;5.70;;;11.00;99.90;;;;;;5029611;28;20467;-72
2022/11/13 11:45:45;;;;;;;7.10;5.50;;;11.10;99.90;;;;;;5030864;28;20477;-71
2022/11/13 11:48:30;;;;;;;6.70;5.17;;;11.10;99.90;;;;;;5044000;28;20593;-72
2022/11/13 11:51:28;;;;;;;5.70;4.77;;;11.20;99.90;;;;;;5029372;28;20987;-72
2022/11/13 11:54:21;;;;;;;5.93;5.00;;;11.20;99.90;;;;;;5060214;28;20466;-72
2022/11/13 11:57:33;;;;;;;8.87;5.97;;;11.30;99.90;;;;;;5029131;28;20454;-72
2022/11/13 12:00:19;;;;;;;5.07;4.53;;;11.50;99.90;;;;;;5042976;28;20840;-72
2022/11/13 12:03:09;;;;;;;8.40;6.00;;;11.70;99.90;;;;;;5029951;28;20485;-72
2022/11/13 12:06:05;;;;;;;7.57;5.00;;;11.80;99.90;;;;;;5031304;28;20486;-72
2022/11/13 12:08:59;;;;;;;5.30;4.80;;;11.90;99.90;;;;;;5043739;28;21011;-72
2022/11/13 12:11:49;;;;;;;6.60;5.10;;;12.10;99.90;;;;;;5030130;28;20462;-72
2022/11/13 12:14:47;;;;;;;5.30;4.00;;;12.10;99.90;;;;;;5042832;28;20474;-71
2022/11/13 12:17:43;;;;;;;8.17;4.93;;;12.10;99.90;;;;;;5042451;28;20533;-72
2022/11/13 12:20:49;;;;;;;4.87;4.47;;;12.10;99.90;;;;;;5044283;28;21026;-72
2022/11/13 12:23:43;;;;;;;6.60;4.87;;;12.10;99.90;;;;;;5028220;28;20486;-69
2022/11/13 12:26:47;;;;;;;5.63;4.77;;;12.20;99.90;;;;;;5030185;28;20474;-70
2022/11/13 12:29:51;;;;;;;6.40;5.03;;;12.20;99.90;;;;;;5031156;28;20474;-70
2022/11/13 12:32:54;;;;;;;7.20;4.90;;;12.30;99.90;;;;;;5029214;28;20520;-70
2022/11/13 12:35:39;;;;;;;6.70;4.87;;;12.40;99.90;;;;;;5028911;28;20505;-70
2022/11/13 12:38:23;;;;;;;5.90;4.97;;;12.50;99.90;;;;;;5041097;28;20481;-70
2022/11/13 12:41:20;;;;;;;6.50;5.10;;;12.60;99.90;;;;;;5030034;28;20485;-69
2022/11/13 12:44:16;;;;;;;5.83;5.07;;;12.60;99.90;;;;;;5029691;28;21034;-69
2022/11/13 12:47:00;;;;;;;6.77;5.57;;;12.60;99.90;;;;;;5042720;28;20458;-69
2022/11/13 12:49:45;;;;;;;6.17;5.57;;;12.70;99.90;;;;;;5028151;28;20454;-70
2022/11/13 12:52:29;;;;;;;9.87;6.47;;;12.60;99.90;;;;;;5032214;28;20841;-71
2022/11/13 12:55:28;;;;;;;6.83;5.50;;;12.60;99.90;;;;;;5050309;28;20526;-70
2022/11/13 12:58:39;;;;;;;6.73;5.50;;;12.60;99.90;;;;;;5032160;28;20991;-70
2022/11/13 13:01:27;;;;;;;6.73;5.30;;;12.50;99.90;;;;;;5036141;28;20501;-69
2022/11/13 13:04:17;;;;;;;10.17;6.97;;;12.50;99.90;;;;;;5022085;28;21078;-69
2022/11/13 13:07:35;;;;;;;8.43;6.10;;;12.50;99.90;;;;;;5043702;28;20457;-69
2022/11/13 13:10:26;;;;;;;9.93;7.67;;;12.50;99.90;;;;;;5031903;28;20481;-69
2022/11/13 13:13:26;;;;;;;13.47;8.17;;;12.50;99.90;;;;;;5028990;28;20478;-69
2022/11/13 13:16:19;;;;;;;9.13;6.60;;;12.50;99.90;;;;;;5022588;28;20505;-68
2022/11/13 13:19:22;;;;;;;10.10;7.10;;;12.40;99.90;;;;;;5042977;28;20459;-69
2022/11/13 13:22:11;;;;;;;7.20;6.13;;;12.40;99.90;;;;;;5048643;28;20462;-69
2022/11/13 13:25:27;;;;;;;6.40;5.30;;;12.30;99.90;;;;;;5039546;28;20829;-69
2022/11/13 13:28:20;;;;;;;6.63;5.20;;;12.30;99.90;;;;;;5029362;28;20551;-69
2022/11/13 13:31:14;;;;;;;5.90;4.70;;;12.30;99.90;;;;;;5039355;28;21011;-68
2022/11/13 13:34:23;;;;;;;6.40;5.10;;;12.30;99.90;;;;;;5037479;28;20478;-69
2022/11/13 13:37:24;;;;;;;8.20;5.03;;;12.40;99.90;;;;;;5026970;28;20518;-70
2022/11/13 13:40:30;;;;;;;7.77;4.90;;;12.30;99.90;;;;;;5026498;28;20585;-70
2022/11/13 13:43:36;;;;;;;4.40;4.00;;;12.30;99.90;;;;;;5027994;28;20497;-70
2022/11/13 13:46:29;;;;;;;4.50;4.10;;;12.30;99.90;;;;;;5042017;28;20545;-70
2022/11/13 13:49:17;;;;;;;5.50;4.30;;;12.30;99.90;;;;;;5028911;28;21037;-70
2022/11/13 13:52:04;;;;;;;6.70;4.30;;;12.30;99.90;;;;;;5038113;28;21002;-69
2022/11/13 13:54:48;;;;;;;5.20;3.70;;;12.20;99.90;;;;;;5027094;28;20465;-70
2022/11/13 13:57:38;;;;;;;3.63;3.23;;;12.10;99.90;;;;;;5027027;28;20822;-69
2022/11/13 14:00:24;;;;;;;4.23;3.30;;;12.10;99.90;;;;;;5026252;28;20485;-69
2022/11/13 14:03:19;;;;;;;6.07;4.00;;;12.20;99.90;;;;;;5025154;28;20469;-69
2022/11/13 14:06:20;;;;;;;3.67;3.10;;;12.20;99.90;;;;;;5036729;28;20520;-70
2022/11/13 14:09:09;;;;;;;5.30;4.80;;;12.20;99.90;;;;;;5023949;28;21058;-71
2022/11/13 14:11:57;;;;;;;5.07;3.67;;;12.20;99.90;;;;;;5038705;28;20497;-71
2022/11/13 14:14:41;;;;;;;5.17;3.73;;;12.20;99.90;;;;;;5026449;28;20471;-71
2022/11/13 14:17:27;;;;;;;4.20;3.80;;;12.30;99.90;;;;;;5025577;28;20493;-71
2022/11/13 14:20:12;;;;;;;5.93;4.77;;;12.20;99.90;;;;;;5023480;28;20470;-71
2022/11/13 14:22:57;;;;;;;10.23;6.33;;;12.20;99.90;;;;;;5025407;28;20489;-72
2022/11/13 14:25:42;;;;;;;14.20;10.27;;;12.20;99.90;;;;;;5023482;28;20553;-71
2022/11/13 14:28:29;;;;;;;17.57;12.90;;;12.20;99.90;;;;;;5039532;28;20533;-71
2022/11/13 14:31:14;;;;;;;21.60;16.67;;;12.20;99.90;;;;;;5025898;28;20529;-71
2022/11/13 14:34:01;;;;;;;24.20;19.80;;;12.20;99.90;;;;;;5025253;28;20580;-71
2022/11/13 14:36:47;;;;;;;23.63;17.97;;;12.30;99.90;;;;;;5026501;28;20482;-72
2022/11/13 14:39:32;;;;;;;16.23;12.57;;;12.30;99.90;;;;;;5022589;28;20517;-72